sensor_id;sensor_type;location;lat;lon;timestamp;pressure;altitude;pressure_sealevel;temperature;humidity
80103;BME280;69865;47.648;19.030;2023-05-07T00:00:08;100520.78;;;13.05;92.02
80103;BME280;69865;47.648;19.030;2023-05-07T00:00:39;100523.13;;;13.08;91.80
80103;BME280;69865;47.648;19.030;2023-05-07T00:01:10;100522.16;;;13.09;92.12
80103;BME280;69865;47.648;19.030;2023-05-07T00:01:40;100519.53;;;13.09;91.69
80103;BME280;69865;47.648;19.030;2023-05-07T00:02:11;100519.66;;;13.08;91.37
80103;BME280;69865;47.648;19.030;2023-05-07T00:02:42;100521.19;;;13.10;91.49
80103;BME280;69865;47.648;19.030;2023-05-07T00:03:13;100519.25;;;13.12;91.26
80103;BME280;69865;47.648;19.030;2023-05-07T00:03:43;100519.94;;;13.14;91.44
80103;BME280;69865;47.648;19.030;2023-05-07T00:04:14;100518.00;;;13.16;91.28
80103;BME280;69865;47.648;19.030;2023-05-07T00:04:45;100516.84;;;13.19;91.26
80103;BME280;69865;47.648;19.030;2023-05-07T00:05:16;100510.72;;;13.18;90.71
80103;BME280;69865;47.648;19.030;2023-05-07T00:05:46;100517.69;;;13.20;91.31
80103;BME280;69865;47.648;19.030;2023-05-07T00:06:17;100510.59;;;13.20;91.19
80103;BME280;69865;47.648;19.030;2023-05-07T00:06:48;100516.72;;;13.21;91.04
80103;BME280;69865;47.648;19.030;2023-05-07T00:07:18;100520.34;;;13.20;90.73
80103;BME280;69865;47.648;19.030;2023-05-07T00:07:49;100524.50;;;13.22;90.64
80103;BME280;69865;47.648;19.030;2023-05-07T00:08:20;100515.28;;;13.26;91.25
80103;BME280;69865;47.648;19.030;2023-05-07T00:08:51;100522.25;;;13.27;90.52
80103;BME280;69865;47.648;19.030;2023-05-07T00:09:21;100519.47;;;13.29;90.28
80103;BME280;69865;47.648;19.030;2023-05-07T00:09:52;100520.31;;;13.29;90.43
80103;BME280;69865;47.648;19.030;2023-05-07T00:10:23;100517.81;;;13.28;90.54
80103;BME280;69865;47.648;19.030;2023-05-07T00:10:54;100532.69;;;13.29;90.42
80103;BME280;69865;47.648;19.030;2023-05-07T00:11:24;100524.06;;;13.27;90.72
80103;BME280;69865;47.648;19.030;2023-05-07T00:11:57;100519.19;;;13.22;90.81
80103;BME280;69865;47.648;19.030;2023-05-07T00:12:27;100526.31;;;13.22;91.23
80103;BME280;69865;47.648;19.030;2023-05-07T00:12:58;100524.34;;;13.24;90.78
80103;BME280;69865;47.648;19.030;2023-05-07T00:13:29;100523.38;;;13.25;90.93
80103;BME280;69865;47.648;19.030;2023-05-07T00:14:00;100521.72;;;13.24;90.43
80103;BME280;69865;47.648;19.030;2023-05-07T00:14:30;100527.84;;;13.24;90.77
80103;BME280;69865;47.648;19.030;2023-05-07T00:15:02;100520.56;;;13.26;90.50
80103;BME280;69865;47.648;19.030;2023-05-07T00:15:33;100520.56;;;13.26;90.62
80103;BME280;69865;47.648;19.030;2023-05-07T00:16:04;100522.41;;;13.26;90.76
80103;BME280;69865;47.648;19.030;2023-05-07T00:16:35;100515.16;;;13.28;90.45
80103;BME280;69865;47.648;19.030;2023-05-07T00:17:05;100520.16;;;13.31;90.43
80103;BME280;69865;47.648;19.030;2023-05-07T00:17:37;100521.97;;;13.30;90.27
80103;BME280;69865;47.648;19.030;2023-05-07T00:18:07;100528.09;;;13.31;90.12
80103;BME280;69865;47.648;19.030;2023-05-07T00:18:38;100518.47;;;13.30;90.65
80103;BME280;69865;47.648;19.030;2023-05-07T00:19:09;100525.44;;;13.31;90.50
80103;BME280;69865;47.648;19.030;2023-05-07T00:19:40;100518.22;;;13.33;90.60
80103;BME280;69865;47.648;19.030;2023-05-07T00:20:11;100519.31;;;13.30;90.48
80103;BME280;69865;47.648;19.030;2023-05-07T00:20:42;100520.84;;;13.33;90.42
80103;BME280;69865;47.648;19.030;2023-05-07T00:21:13;100520.84;;;13.33;90.25
80103;BME280;69865;47.648;19.030;2023-05-07T00:21:43;100522.78;;;13.31;90.57
80103;BME280;69865;47.648;19.030;2023-05-07T00:22:14;100524.59;;;13.30;89.78
80103;BME280;69865;47.648;19.030;2023-05-07T00:22:45;100520.56;;;13.26;89.78
80103;BME280;69865;47.648;19.030;2023-05-07T00:23:16;100513.53;;;13.17;90.44
80103;BME280;69865;47.648;19.030;2023-05-07T00:23:46;100519.38;;;13.21;90.31
80103;BME280;69865;47.648;19.030;2023-05-07T00:24:17;100525.91;;;13.16;90.98
80103;BME280;69865;47.648;19.030;2023-05-07T00:24:48;100515.47;;;13.15;90.67
80103;BME280;69865;47.648;19.030;2023-05-07T00:25:19;100515.47;;;13.15;90.89
80103;BME280;69865;47.648;19.030;2023-05-07T00:25:49;100513.81;;;13.14;90.52
80103;BME280;69865;47.648;19.030;2023-05-07T00:26:20;100513.00;;;13.13;90.53
80103;BME280;69865;47.648;19.030;2023-05-07T00:26:51;100516.75;;;13.11;90.97
80103;BME280;69865;47.648;19.030;2023-05-07T00:27:24;100518.69;;;13.09;90.78
80103;BME280;69865;47.648;19.030;2023-05-07T00:27:55;100517.00;;;13.08;91.32
80103;BME280;69865;47.648;19.030;2023-05-07T00:28:25;100516.03;;;13.09;90.88
80103;BME280;69865;47.648;19.030;2023-05-07T00:28:56;100516.03;;;13.09;91.50
80103;BME280;69865;47.648;19.030;2023-05-07T00:29:27;100512.44;;;13.10;91.02
80103;BME280;69865;47.648;19.030;2023-05-07T00:29:57;100517.28;;;13.14;91.12
80103;BME280;69865;47.648;19.030;2023-05-07T00:30:28;100512.69;;;13.16;91.46
80103;BME280;69865;47.648;19.030;2023-05-07T00:30:59;100520.47;;;13.18;91.30
80103;BME280;69865;47.648;19.030;2023-05-07T00:31:30;100512.84;;;13.15;91.03
80103;BME280;69865;47.648;19.030;2023-05-07T00:32:00;100516.31;;;13.15;91.00
80103;BME280;69865;47.648;19.030;2023-05-07T00:32:31;100519.09;;;13.14;90.90
80103;BME280;69865;47.648;19.030;2023-05-07T00:33:02;100514.63;;;13.14;90.89
80103;BME280;69865;47.648;19.030;2023-05-07T00:33:33;100517.16;;;13.16;91.34
80103;BME280;69865;47.648;19.030;2023-05-07T00:34:03;100525.22;;;13.14;91.29
80103;BME280;69865;47.648;19.030;2023-05-07T00:34:34;100523.00;;;13.10;91.10
80103;BME280;69865;47.648;19.030;2023-05-07T00:35:06;100523.25;;;13.07;91.55
80103;BME280;69865;47.648;19.030;2023-05-07T00:35:37;100521.31;;;13.09;90.65
80103;BME280;69865;47.648;19.030;2023-05-07T00:36:08;100529.13;;;13.10;91.10
80103;BME280;69865;47.648;19.030;2023-05-07T00:36:39;100524.69;;;13.11;90.56
80103;BME280;69865;47.648;19.030;2023-05-07T00:37:09;100523.41;;;13.15;90.76
80103;BME280;69865;47.648;19.030;2023-05-07T00:37:40;100525.63;;;13.20;90.83
80103;BME280;69865;47.648;19.030;2023-05-07T00:38:11;100520.88;;;13.23;90.14
80103;BME280;69865;47.648;19.030;2023-05-07T00:38:41;100524.50;;;13.22;90.73
80103;BME280;69865;47.648;19.030;2023-05-07T00:39:12;100525.31;;;13.23;90.41
80103;BME280;69865;47.648;19.030;2023-05-07T00:39:43;100520.88;;;13.23;90.47
80103;BME280;69865;47.648;19.030;2023-05-07T00:40:14;100523.38;;;13.25;90.57
80103;BME280;69865;47.648;19.030;2023-05-07T00:40:44;100519.78;;;13.26;89.81
80103;BME280;69865;47.648;19.030;2023-05-07T00:41:15;100523.38;;;13.25;89.70
80103;BME280;69865;47.648;19.030;2023-05-07T00:41:46;100522.56;;;13.24;90.03
80103;BME280;69865;47.648;19.030;2023-05-07T00:42:17;100523.53;;;13.23;89.89
80103;BME280;69865;47.648;19.030;2023-05-07T00:42:49;100519.06;;;13.24;90.17
80103;BME280;69865;47.648;19.030;2023-05-07T00:43:20;100518.94;;;13.25;89.80
80103;BME280;69865;47.648;19.030;2023-05-07T00:43:50;100529.50;;;13.25;89.81
80103;BME280;69865;47.648;19.030;2023-05-07T00:44:21;100525.06;;;13.26;90.11
80103;BME280;69865;47.648;19.030;2023-05-07T00:44:52;100521.59;;;13.25;89.51
80103;BME280;69865;47.648;19.030;2023-05-07T00:45:26;100523.38;;;13.25;89.93
80103;BME280;69865;47.648;19.030;2023-05-07T00:45:57;100528.50;;;13.26;89.58
80103;BME280;69865;47.648;19.030;2023-05-07T00:46:28;100524.91;;;13.27;89.52
80103;BME280;69865;47.648;19.030;2023-05-07T00:47:03;100525.19;;;13.24;89.26
80103;BME280;69865;47.648;19.030;2023-05-07T00:47:35;100519.91;;;13.24;89.37
80103;BME280;69865;47.648;19.030;2023-05-07T00:48:06;100522.41;;;13.26;89.49
80103;BME280;69865;47.648;19.030;2023-05-07T00:48:37;100520.75;;;13.25;89.28
80103;BME280;69865;47.648;19.030;2023-05-07T00:49:08;100519.06;;;13.24;89.72
80103;BME280;69865;47.648;19.030;2023-05-07T00:49:41;100520.88;;;13.23;89.33
80103;BME280;69865;47.648;19.030;2023-05-07T00:50:12;100522.41;;;13.26;89.21
80103;BME280;69865;47.648;19.030;2023-05-07T00:50:44;100524.91;;;13.27;89.34
80103;BME280;69865;47.648;19.030;2023-05-07T00:51:16;100519.59;;;13.27;89.46
80103;BME280;69865;47.648;19.030;2023-05-07T00:51:47;100523.09;;;13.28;89.24
80103;BME280;69865;47.648;19.030;2023-05-07T00:52:20;100527.53;;;13.27;89.17
80103;BME280;69865;47.648;19.030;2023-05-07T00:52:52;100522.25;;;13.27;88.60
80103;BME280;69865;47.648;19.030;2023-05-07T00:53:23;100522.13;;;13.29;89.08
80103;BME280;69865;47.648;19.030;2023-05-07T00:53:54;100532.53;;;13.30;88.99
80103;BME280;69865;47.648;19.030;2023-05-07T00:54:25;100526.41;;;13.30;88.93
80103;BME280;69865;47.648;19.030;2023-05-07T00:54:56;100524.47;;;13.32;89.00
80103;BME280;69865;47.648;19.030;2023-05-07T00:55:28;100524.47;;;13.32;89.26
80103;BME280;69865;47.648;19.030;2023-05-07T00:55:59;100517.66;;;13.29;89.07
80103;BME280;69865;47.648;19.030;2023-05-07T00:56:30;100524.22;;;13.25;88.43
80103;BME280;69865;47.648;19.030;2023-05-07T00:57:02;100527.31;;;13.21;89.71
80103;BME280;69865;47.648;19.030;2023-05-07T00:57:36;100521.03;;;13.22;89.27
80103;BME280;69865;47.648;19.030;2023-05-07T00:58:08;100520.22;;;13.21;89.22
80103;BME280;69865;47.648;19.030;2023-05-07T00:58:40;100521.84;;;13.22;89.45
80103;BME280;69865;47.648;19.030;2023-05-07T00:59:11;100524.91;;;13.27;89.34
80103;BME280;69865;47.648;19.030;2023-05-07T00:59:41;100524.75;;;13.29;89.09
80103;BME280;69865;47.648;19.030;2023-05-07T01:00:13;100521.13;;;13.30;88.97
80103;BME280;69865;47.648;19.030;2023-05-07T01:00:44;100526.41;;;13.30;89.10
80103;BME280;69865;47.648;19.030;2023-05-07T01:01:15;100520.00;;;13.32;88.57
80103;BME280;69865;47.648;19.030;2023-05-07T01:01:46;100529.47;;;13.35;88.55
80103;BME280;69865;47.648;19.030;2023-05-07T01:02:16;100522.91;;;13.39;88.73
80103;BME280;69865;47.648;19.030;2023-05-07T01:02:47;100524.69;;;13.38;88.49
80103;BME280;69865;47.648;19.030;2023-05-07T01:03:18;100525.72;;;13.37;88.24
80103;BME280;69865;47.648;19.030;2023-05-07T01:03:49;100516.09;;;13.36;88.45
80103;BME280;69865;47.648;19.030;2023-05-07T01:04:19;100525.00;;;13.35;88.62
80103;BME280;69865;47.648;19.030;2023-05-07T01:04:50;100523.88;;;13.38;89.01
80103;BME280;69865;47.648;19.030;2023-05-07T01:05:23;100518.44;;;13.39;88.53
80103;BME280;69865;47.648;19.030;2023-05-07T01:05:56;100522.75;;;13.40;88.48
80103;BME280;69865;47.648;19.030;2023-05-07T01:06:29;100527.88;;;13.42;88.57
80103;BME280;69865;47.648;19.030;2023-05-07T01:07:03;100531.91;;;13.46;88.58
80103;BME280;69865;47.648;19.030;2023-05-07T01:07:36;100528.28;;;13.47;88.23
80103;BME280;69865;47.648;19.030;2023-05-07T01:08:07;100531.63;;;13.49;88.68
80103;BME280;69865;47.648;19.030;2023-05-07T01:08:39;100527.88;;;13.42;88.76
80103;BME280;69865;47.648;19.030;2023-05-07T01:09:12;100529.13;;;13.47;88.67
80103;BME280;69865;47.648;19.030;2023-05-07T01:09:43;100528.00;;;13.50;88.44
80103;BME280;69865;47.648;19.030;2023-05-07T01:10:14;100522.88;;;13.48;88.06
80103;BME280;69865;47.648;19.030;2023-05-07T01:10:46;100521.19;;;13.47;88.03
80103;BME280;69865;47.648;19.030;2023-05-07T01:11:17;100531.78;;;13.47;88.09
80103;BME280;69865;47.648;19.030;2023-05-07T01:11:49;100530.94;;;13.47;88.61
80103;BME280;69865;47.648;19.030;2023-05-07T01:12:21;100529.25;;;13.46;88.39
80103;BME280;69865;47.648;19.030;2023-05-07T01:12:53;100529.03;;;13.39;88.43
80103;BME280;69865;47.648;19.030;2023-05-07T01:13:27;100531.13;;;13.36;88.03
80103;BME280;69865;47.648;19.030;2023-05-07T01:13:59;100536.97;;;13.39;88.01
80103;BME280;69865;47.648;19.030;2023-05-07T01:14:30;100536.00;;;13.40;88.13
80103;BME280;69865;47.648;19.030;2023-05-07T01:15:02;100530.69;;;13.40;88.77
80103;BME280;69865;47.648;19.030;2023-05-07T01:15:33;100528.88;;;13.41;88.35
80103;BME280;69865;47.648;19.030;2023-05-07T01:16:04;100535.03;;;13.41;88.42
80103;BME280;69865;47.648;19.030;2023-05-07T01:16:36;100527.22;;;13.40;88.23
80103;BME280;69865;47.648;19.030;2023-05-07T01:17:07;100529.16;;;13.38;88.25
80103;BME280;69865;47.648;19.030;2023-05-07T01:17:40;100537.66;;;13.41;88.65
80103;BME280;69865;47.648;19.030;2023-05-07T01:18:11;100535.03;;;13.41;88.34
80103;BME280;69865;47.648;19.030;2023-05-07T01:18:42;100536.00;;;13.40;88.35
80103;BME280;69865;47.648;19.030;2023-05-07T01:19:17;100531.66;;;13.39;88.35
80103;BME280;69865;47.648;19.030;2023-05-07T01:19:48;100533.34;;;13.40;88.60
80103;BME280;69865;47.648;19.030;2023-05-07T01:20:19;100531.97;;;13.36;88.80
80103;BME280;69865;47.648;19.030;2023-05-07T01:20:51;100534.19;;;13.41;88.32
80103;BME280;69865;47.648;19.030;2023-05-07T01:21:25;100533.75;;;13.45;87.82
80103;BME280;69865;47.648;19.030;2023-05-07T01:22:01;100532.59;;;13.48;88.33
80103;BME280;69865;47.648;19.030;2023-05-07T01:22:35;100539.72;;;13.47;87.82
80103;BME280;69865;47.648;19.030;2023-05-07T01:23:07;100531.91;;;13.46;88.57
80103;BME280;69865;47.648;19.030;2023-05-07T01:23:39;100536.53;;;13.44;88.50
80103;BME280;69865;47.648;19.030;2023-05-07T01:24:11;100535.38;;;13.46;88.27
80103;BME280;69865;47.648;19.030;2023-05-07T01:24:42;100537.91;;;13.48;88.31
80103;BME280;69865;47.648;19.030;2023-05-07T01:25:13;100538.34;;;13.43;87.81
80103;BME280;69865;47.648;19.030;2023-05-07T01:25:51;100536.81;;;13.41;88.48
80103;BME280;69865;47.648;19.030;2023-05-07T01:26:22;100535.03;;;13.41;88.17
80103;BME280;69865;47.648;19.030;2023-05-07T01:26:53;100524.88;;;13.37;87.64
80103;BME280;69865;47.648;19.030;2023-05-07T01:27:24;100531.09;;;13.45;88.19
80103;BME280;69865;47.648;19.030;2023-05-07T01:27:55;100536.66;;;13.42;87.66
80103;BME280;69865;47.648;19.030;2023-05-07T01:28:25;100541.28;;;13.40;88.05
80103;BME280;69865;47.648;19.030;2023-05-07T01:28:56;100538.63;;;13.40;88.10
80103;BME280;69865;47.648;19.030;2023-05-07T01:29:27;100533.66;;;13.37;88.42
80103;BME280;69865;47.648;19.030;2023-05-07T01:29:58;100537.94;;;13.38;88.10
80103;BME280;69865;47.648;19.030;2023-05-07T01:30:29;100539.75;;;13.38;87.80
80103;BME280;69865;47.648;19.030;2023-05-07T01:31:03;100530.44;;;13.34;87.84
80103;BME280;69865;47.648;19.030;2023-05-07T01:31:34;100532.09;;;13.35;87.44
80103;BME280;69865;47.648;19.030;2023-05-07T01:32:07;100539.91;;;13.36;88.04
80103;BME280;69865;47.648;19.030;2023-05-07T01:32:45;100530.69;;;13.40;88.25
80103;BME280;69865;47.648;19.030;2023-05-07T01:33:21;100533.47;;;13.39;87.51
80103;BME280;69865;47.648;19.030;2023-05-07T01:33:52;100530.84;;;13.39;88.04
80103;BME280;69865;47.648;19.030;2023-05-07T01:34:25;100533.66;;;13.37;87.73
80103;BME280;69865;47.648;19.030;2023-05-07T01:34:58;100535.16;;;13.40;88.09
80103;BME280;69865;47.648;19.030;2023-05-07T01:35:34;100529.03;;;13.39;87.88
80103;BME280;69865;47.648;19.030;2023-05-07T01:36:08;100528.06;;;13.40;87.74
80103;BME280;69865;47.648;19.030;2023-05-07T01:36:41;100528.06;;;13.40;88.18
80103;BME280;69865;47.648;19.030;2023-05-07T01:37:14;100537.09;;;13.38;88.22
80103;BME280;69865;47.648;19.030;2023-05-07T01:37:47;100534.31;;;13.39;87.97
80103;BME280;69865;47.648;19.030;2023-05-07T01:38:19;100531.53;;;13.41;87.45
80103;BME280;69865;47.648;19.030;2023-05-07T01:38:52;100534.03;;;13.42;88.02
80103;BME280;69865;47.648;19.030;2023-05-07T01:39:25;100532.06;;;13.44;87.89
80103;BME280;69865;47.648;19.030;2023-05-07T01:39:56;100531.22;;;13.44;87.71
80103;BME280;69865;47.648;19.030;2023-05-07T01:40:27;100530.81;;;13.48;87.70
80103;BME280;69865;47.648;19.030;2023-05-07T01:40:58;100528.81;;;13.50;87.50
80103;BME280;69865;47.648;19.030;2023-05-07T01:41:29;100530.63;;;13.50;87.58
80103;BME280;69865;47.648;19.030;2023-05-07T01:42:00;100525.22;;;13.51;87.74
80103;BME280;69865;47.648;19.030;2023-05-07T01:42:31;100526.03;;;13.52;87.24
80103;BME280;69865;47.648;19.030;2023-05-07T01:43:02;100533.97;;;13.52;87.73
80103;BME280;69865;47.648;19.030;2023-05-07T01:43:33;100525.06;;;13.53;87.24
80103;BME280;69865;47.648;19.030;2023-05-07T01:44:05;100531.19;;;13.53;87.52
80103;BME280;69865;47.648;19.030;2023-05-07T01:44:36;100528.56;;;13.53;87.08
80103;BME280;69865;47.648;19.030;2023-05-07T01:45:08;100523.09;;;13.55;87.06
80103;BME280;69865;47.648;19.030;2023-05-07T01:45:40;100522.97;;;13.56;87.61
80103;BME280;69865;47.648;19.030;2023-05-07T01:46:12;100522.44;;;13.53;87.38
80103;BME280;69865;47.648;19.030;2023-05-07T01:46:43;100523.69;;;13.49;87.71
80103;BME280;69865;47.648;19.030;2023-05-07T01:47:14;100520.66;;;13.44;87.99
80103;BME280;69865;47.648;19.030;2023-05-07T01:47:46;100527.09;;;13.41;88.12
80103;BME280;69865;47.648;19.030;2023-05-07T01:48:17;100523.72;;;13.39;87.99
80103;BME280;69865;47.648;19.030;2023-05-07T01:48:49;100515.38;;;13.34;87.83
80103;BME280;69865;47.648;19.030;2023-05-07T01:49:21;100523.34;;;13.34;88.21
80103;BME280;69865;47.648;19.030;2023-05-07T01:49:52;100522.78;;;13.31;88.48
80103;BME280;69865;47.648;19.030;2023-05-07T01:50:23;100518.94;;;13.25;88.69
80103;BME280;69865;47.648;19.030;2023-05-07T01:50:55;100520.03;;;13.23;88.97
80103;BME280;69865;47.648;19.030;2023-05-07T01:51:26;100514.75;;;13.23;89.33
80103;BME280;69865;47.648;19.030;2023-05-07T01:51:57;100520.22;;;13.21;88.73
80103;BME280;69865;47.648;19.030;2023-05-07T01:52:28;100517.41;;;13.23;88.90
80103;BME280;69865;47.648;19.030;2023-05-07T01:53:01;100521.84;;;13.22;89.20
80103;BME280;69865;47.648;19.030;2023-05-07T01:53:35;100518.53;;;13.20;89.26
80103;BME280;69865;47.648;19.030;2023-05-07T01:54:06;100520.34;;;13.20;88.91
80103;BME280;69865;47.648;19.030;2023-05-07T01:54:37;100522.31;;;13.18;89.22
80103;BME280;69865;47.648;19.030;2023-05-07T01:55:08;100520.63;;;13.16;89.37
80103;BME280;69865;47.648;19.030;2023-05-07T01:55:39;100520.94;;;13.13;89.43
80103;BME280;69865;47.648;19.030;2023-05-07T01:56:10;100520.09;;;13.13;88.91
80103;BME280;69865;47.648;19.030;2023-05-07T01:56:40;100524.53;;;13.12;88.97
80103;BME280;69865;47.648;19.030;2023-05-07T01:57:11;100523.72;;;13.12;89.58
80103;BME280;69865;47.648;19.030;2023-05-07T01:57:42;100526.22;;;13.13;89.18
80103;BME280;69865;47.648;19.030;2023-05-07T01:58:13;100522.16;;;13.09;89.35
80103;BME280;69865;47.648;19.030;2023-05-07T01:58:44;100515.34;;;13.07;89.06
80103;BME280;69865;47.648;19.030;2023-05-07T01:59:14;100521.47;;;13.07;89.63
80103;BME280;69865;47.648;19.030;2023-05-07T01:59:45;100518.13;;;13.05;89.37
80103;BME280;69865;47.648;19.030;2023-05-07T02:00:16;100526.19;;;13.04;89.49
80103;BME280;69865;47.648;19.030;2023-05-07T02:00:47;100520.38;;;13.00;89.55
80103;BME280;69865;47.648;19.030;2023-05-07T02:01:18;100516.75;;;13.01;89.30
80103;BME280;69865;47.648;19.030;2023-05-07T02:01:49;100519.13;;;13.04;89.45
80103;BME280;69865;47.648;19.030;2023-05-07T02:02:20;100517.88;;;12.99;89.55
80103;BME280;69865;47.648;19.030;2023-05-07T02:02:50;100514.25;;;13.00;89.18
80103;BME280;69865;47.648;19.030;2023-05-07T02:03:21;100516.75;;;13.01;89.82
80103;BME280;69865;47.648;19.030;2023-05-07T02:03:52;100522.72;;;13.03;89.47
80103;BME280;69865;47.648;19.030;2023-05-07T02:04:23;100516.31;;;13.06;89.21
80103;BME280;69865;47.648;19.030;2023-05-07T02:04:53;100523.44;;;13.05;89.40
80103;BME280;69865;47.648;19.030;2023-05-07T02:05:24;100518.13;;;13.05;89.47
80103;BME280;69865;47.648;19.030;2023-05-07T02:05:55;100521.75;;;13.04;89.41
80103;BME280;69865;47.648;19.030;2023-05-07T02:06:26;100518.28;;;13.04;89.50
80103;BME280;69865;47.648;19.030;2023-05-07T02:06:56;100518.69;;;12.99;89.15
80103;BME280;69865;47.648;19.030;2023-05-07T02:07:27;100525.41;;;12.94;89.85
80103;BME280;69865;47.648;19.030;2023-05-07T02:07:58;100520.13;;;12.94;89.93
80103;BME280;69865;47.648;19.030;2023-05-07T02:08:30;100519.28;;;12.93;89.65
80103;BME280;69865;47.648;19.030;2023-05-07T02:09:01;100516.66;;;12.93;89.81
80103;BME280;69865;47.648;19.030;2023-05-07T02:09:31;100525.53;;;12.92;89.73
80103;BME280;69865;47.648;19.030;2023-05-07T02:10:02;100521.53;;;12.88;89.89
80103;BME280;69865;47.648;19.030;2023-05-07T02:10:33;100519.00;;;12.87;89.96
80103;BME280;69865;47.648;19.030;2023-05-07T02:11:04;100520.56;;;12.80;90.15
80103;BME280;69865;47.648;19.030;2023-05-07T02:11:35;100526.13;;;12.77;90.31
80103;BME280;69865;47.648;19.030;2023-05-07T02:12:05;100525.59;;;12.73;90.52
80103;BME280;69865;47.648;19.030;2023-05-07T02:12:36;100517.25;;;12.68;90.92
80103;BME280;69865;47.648;19.030;2023-05-07T02:13:07;100517.78;;;12.71;90.69
80103;BME280;69865;47.648;19.030;2023-05-07T02:13:38;100522.25;;;12.71;90.68
80103;BME280;69865;47.648;19.030;2023-05-07T02:14:08;100519.47;;;12.73;90.66
80103;BME280;69865;47.648;19.030;2023-05-07T02:14:39;100516.13;;;12.70;90.20
80103;BME280;69865;47.648;19.030;2023-05-07T02:15:10;100518.63;;;12.72;90.54
80103;BME280;69865;47.648;19.030;2023-05-07T02:15:41;100521.16;;;12.74;90.97
80103;BME280;69865;47.648;19.030;2023-05-07T02:16:11;100517.78;;;12.71;90.89
80103;BME280;69865;47.648;19.030;2023-05-07T02:16:42;100515.84;;;12.74;90.68
80103;BME280;69865;47.648;19.030;2023-05-07T02:17:13;100524.47;;;12.76;90.68
80103;BME280;69865;47.648;19.030;2023-05-07T02:17:59;100516.25;;;12.79;90.41
80103;BME280;69865;47.648;19.030;2023-05-07T02:18:30;100518.06;;;12.78;90.50
80103;BME280;69865;47.648;19.030;2023-05-07T02:19:01;100516.13;;;12.80;90.51
80103;BME280;69865;47.648;19.030;2023-05-07T02:19:31;100518.75;;;12.80;90.31
80103;BME280;69865;47.648;19.030;2023-05-07T02:20:02;100516.41;;;12.77;90.37
80103;BME280;69865;47.648;19.030;2023-05-07T02:20:33;100515.84;;;12.74;90.49
80103;BME280;69865;47.648;19.030;2023-05-07T02:21:04;100522.25;;;12.71;90.84
80103;BME280;69865;47.648;19.030;2023-05-07T02:21:35;100517.78;;;12.71;90.39
80103;BME280;69865;47.648;19.030;2023-05-07T02:22:07;100518.63;;;12.72;90.68
80103;BME280;69865;47.648;19.030;2023-05-07T02:22:37;100519.59;;;12.71;90.53
80103;BME280;69865;47.648;19.030;2023-05-07T02:23:08;100519.88;;;12.68;90.63
80103;BME280;69865;47.648;19.030;2023-05-07T02:23:40;100517.53;;;12.65;91.05
80103;BME280;69865;47.648;19.030;2023-05-07T02:24:11;100516.69;;;12.64;90.69
80103;BME280;69865;47.648;19.030;2023-05-07T02:24:42;100518.38;;;12.65;90.76
80103;BME280;69865;47.648;19.030;2023-05-07T02:25:13;100519.19;;;12.66;90.78
80103;BME280;69865;47.648;19.030;2023-05-07T02:25:43;100520.03;;;12.66;90.38
80103;BME280;69865;47.648;19.030;2023-05-07T02:26:14;100518.91;;;12.69;90.53
80103;BME280;69865;47.648;19.030;2023-05-07T02:26:45;100516.28;;;12.69;90.75
80103;BME280;69865;47.648;19.030;2023-05-07T02:27:16;100520.44;;;12.71;90.60
80103;BME280;69865;47.648;19.030;2023-05-07T02:27:46;100518.75;;;12.70;90.65
80103;BME280;69865;47.648;19.030;2023-05-07T02:28:17;100517.13;;;12.69;90.79
80103;BME280;69865;47.648;19.030;2023-05-07T02:28:48;100517.13;;;12.69;90.60
80103;BME280;69865;47.648;19.030;2023-05-07T02:29:19;100515.16;;;12.71;90.48
80103;BME280;69865;47.648;19.030;2023-05-07T02:29:49;100516.81;;;12.73;90.31
80103;BME280;69865;47.648;19.030;2023-05-07T02:30:20;100511.25;;;12.76;90.28
80103;BME280;69865;47.648;19.030;2023-05-07T02:30:51;100519.72;;;12.79;90.07
80103;BME280;69865;47.648;19.030;2023-05-07T02:31:21;100515.97;;;12.82;89.86
80103;BME280;69865;47.648;19.030;2023-05-07T02:31:52;100514.31;;;12.81;90.13
80103;BME280;69865;47.648;19.030;2023-05-07T02:32:23;100516.78;;;12.82;89.62
80103;BME280;69865;47.648;19.030;2023-05-07T02:32:53;100512.63;;;12.80;90.26
80103;BME280;69865;47.648;19.030;2023-05-07T02:33:24;100510.28;;;12.77;90.09
80103;BME280;69865;47.648;19.030;2023-05-07T02:33:55;100516.41;;;12.77;90.37
80103;BME280;69865;47.648;19.030;2023-05-07T02:34:26;100514.19;;;12.73;90.34
80103;BME280;69865;47.648;19.030;2023-05-07T02:34:57;100515.69;;;12.75;90.29
80103;BME280;69865;47.648;19.030;2023-05-07T02:35:27;100505.28;;;12.74;90.18
80103;BME280;69865;47.648;19.030;2023-05-07T02:36:05;100511.38;;;12.74;90.39
80103;BME280;69865;47.648;19.030;2023-05-07T02:36:36;100502.78;;;12.72;90.28
80103;BME280;69865;47.648;19.030;2023-05-07T02:37:07;100508.06;;;12.72;90.88
80103;BME280;69865;47.648;19.030;2023-05-07T02:37:38;100504.59;;;12.71;90.41
80103;BME280;69865;47.648;19.030;2023-05-07T02:38:08;100510.84;;;12.70;90.39
80103;BME280;69865;47.648;19.030;2023-05-07T02:38:40;100511.00;;;12.69;90.37
80103;BME280;69865;47.648;19.030;2023-05-07T02:39:11;100506.69;;;12.68;90.69
80103;BME280;69865;47.648;19.030;2023-05-07T02:39:42;100511.84;;;12.69;90.17
80103;BME280;69865;47.648;19.030;2023-05-07T02:40:13;100510.84;;;12.70;90.57
80103;BME280;69865;47.648;19.030;2023-05-07T02:40:44;100501.53;;;12.66;90.62
80103;BME280;69865;47.648;19.030;2023-05-07T02:41:15;100507.66;;;12.67;90.42
80103;BME280;69865;47.648;19.030;2023-05-07T02:41:45;100512.94;;;12.67;90.37